Phitsanulok, Thailand
Current Conditions -  °F | °C
As of 9:00 PM on Thursday 29 Jan 2015 (Local Time) from VTPP Reporting Station
Haze Haze  
Wind Chill: 75°   Ceiling: Unl
Heat Index: 75°   Visibility: 3mi
Dew Point: 64°   Wind: 2mph
Humidity: 69%   Direction: NA
Pressure: 29.88"   Gusts: NA
Location:  16.82°N, 100.27°E
Report Text: VTPP 291400Z VRB02KT 5000 BR NSC 24/18 Q1012
Loading
Personal Weather Stations






























Interactive Weather Map New forecast layout! Learn more

10-Day Weather Forecast

Advertisements
Track Severe Weather on mobile